FW5824 Provincetown MA US current weather conditions

sailwx.info

Wind from 090 at 19 knots gusting 28

Air temperature 13.3° C
Dewpoint 12.9° C

Last reported at 2019-Dec-14 14:08 UTC.
Time now 2019-Dec-14 15:16 UTC

Location: N 42°04' W 070°11'.
View on Google Maps.

See reports from other nearby stations

  
Tides and Currents Weather Stations Pressure Air Temp Water Temp Dewpoint Dewpoint Depression Visibility Wind Speed Wind Dir Waves Ship Positions
date/time (UTC)wind fromknots sea level pressurealtimeterstation pressurevisibilityair tempwater tempwave heightnotes
2019-Dec-14 14:08 090 19 gusting 28 13.3
2019-Dec-14 14:03 094 17 gusting 26 13.3
2019-Dec-14 13:58 089 17 gusting 27 13.3
2019-Dec-14 13:53 096 18 gusting 30 12.8
2019-Dec-14 13:48 097 21 gusting 32 12.8
2019-Dec-14 13:43 088 19 gusting 27 12.8
2019-Dec-14 13:38 089 19 gusting 26 12.8
2019-Dec-14 13:33 085 17 gusting 25 12.8
2019-Dec-14 13:28 096 19 gusting 26 12.8
2019-Dec-14 13:23 084 20 gusting 30 12.8
2019-Dec-14 13:18 088 14 gusting 25 12.8
2019-Dec-14 13:13 085 17 gusting 26 12.8
2019-Dec-14 13:08 089 16 gusting 24 12.8
2019-Dec-14 13:03 082 17 gusting 26 12.8
2019-Dec-14 12:58 087 17 gusting 27 12.8
2019-Dec-14 12:53 087 19 gusting 30 12.8
2019-Dec-14 12:48 080 18 gusting 24 12.8
2019-Dec-14 12:43 088 19 gusting 32 12.8
2019-Dec-14 12:38 094 20 gusting 31 12.2
2019-Dec-14 12:33 099 21 gusting 33 12.2
2019-Dec-14 12:28 102 23 gusting 33 12.2
2019-Dec-14 12:23 090 19 gusting 31 12.2
2019-Dec-14 12:18 095 24 gusting 33 12.2
2019-Dec-14 12:13 095 23 gusting 34 12.2
2019-Dec-14 12:07 097 21 gusting 33 12.2
2019-Dec-14 12:02 084 22 gusting 33 12.2
2019-Dec-14 11:57 080 20 gusting 33 12.2
2019-Dec-14 11:52 081 23 gusting 33 11.7
2019-Dec-14 11:47 072 23 gusting 36 11.7
2019-Dec-14 11:42 058 26 gusting 36 12.2
2019-Dec-14 11:37 084 23 gusting 30 11.7
2019-Dec-14 11:32 082 20 gusting 28 11.7
2019-Dec-14 11:27 087 14 gusting 24 11.7
2019-Dec-14 11:22 088 19 gusting 28 11.7
2019-Dec-14 10:57 073 27 gusting 37 11.7
2019-Dec-14 10:52 084 30 gusting 41 11.7
2019-Dec-14 10:47 080 33 gusting 46 11.7
2019-Dec-14 10:41 076 30 gusting 47 11.7
2019-Dec-14 10:36 073 28 gusting 45 11.1
2019-Dec-14 10:31 073 29 gusting 45 11.1
2019-Dec-14 10:27 076 28 gusting 49 11.1
2019-Dec-14 10:21 088 30 gusting 43 11.1
2019-Dec-14 10:16 075 33 gusting 42 11.1
2019-Dec-14 10:11 072 33 gusting 46 11.1
2019-Dec-14 10:06 064 33 gusting 46 11.1
2019-Dec-14 10:01 071 33 gusting 47 11.1
2019-Dec-14 09:56 015 27 gusting 41 11.1
2019-Dec-14 09:51 080 31 gusting 43 11.1
2019-Dec-14 09:46 069 30 gusting 42 11.1
2019-Dec-14 09:41 076 26 gusting 40 11.1
2019-Dec-14 09:36 073 31 gusting 44 11.1
2019-Dec-14 09:31 074 32 gusting 47 11.1
2019-Dec-14 09:26 080 32 gusting 45 11.1
2019-Dec-14 09:21 076 30 gusting 43 11.1
2019-Dec-14 09:01 079 31 gusting 41 11.1
2019-Dec-14 08:51 071 29 gusting 44 11.1
2019-Dec-14 08:46 075 28 gusting 38 11.1
2019-Dec-14 08:41 075 26 gusting 38 11.1
2019-Dec-14 08:36 079 26 gusting 36 11.1
2019-Dec-14 08:31 076 29 gusting 42 11.1
2019-Dec-14 08:26 069 26 gusting 39 11.1
2019-Dec-14 08:21 073 23 gusting 33 10.6
2019-Dec-14 08:16 074 26 gusting 37 10.6
2019-Dec-14 08:11 085 24 gusting 38 10.6
2019-Dec-14 08:06 076 24 gusting 34 10.6
2019-Dec-14 08:01 082 25 gusting 36 10.6
2019-Dec-14 07:56 079 21 gusting 37 10.6
2019-Dec-14 07:48 073 26 gusting 37 10.6
2019-Dec-14 07:43 079 27 gusting 37 10.6
2019-Dec-14 07:38 076 26 gusting 35 10.6
2019-Dec-14 07:33 075 26 gusting 33 10.6
2019-Dec-14 07:28 077 22 gusting 31 10.6
2019-Dec-14 07:23 078 26 gusting 35 10.6
2019-Dec-14 07:18 079 26 gusting 34 10.6
2019-Dec-14 07:13 078 20 gusting 33 10.6
2019-Dec-14 07:08 076 22 gusting 34 10.6
2019-Dec-14 07:03 081 21 gusting 30 10.6
2019-Dec-14 06:58 082 20 gusting 31 10.6
2019-Dec-14 06:53 072 21 gusting 32 10.6
2019-Dec-14 06:48 082 21 gusting 33 10.6
2019-Dec-14 06:43 079 24 gusting 32 10.0
2019-Dec-14 06:38 078 20 gusting 29 10.0
2019-Dec-14 06:33 076 19 gusting 28 10.0
2019-Dec-14 06:28 070 19 gusting 26 10.0
2019-Dec-14 06:23 069 19 gusting 26 10.0
2019-Dec-14 06:18 078 18 gusting 24 10.0
2019-Dec-14 06:13 081 18 gusting 25 10.0
2019-Dec-14 06:08 078 16 gusting 23 10.0
2019-Dec-14 06:03 080 20 gusting 26 10.0
2019-Dec-14 05:57 069 20 gusting 26 10.0
2019-Dec-14 05:53 070 19 gusting 26 10.0
2019-Dec-14 05:47 069 22 gusting 30 10.0
2019-Dec-14 05:43 080 20 gusting 29 10.0
2019-Dec-14 05:37 068 21 gusting 29 10.0
2019-Dec-14 05:32 076 21 gusting 29 10.0
2019-Dec-14 05:27 076 22 gusting 30 10.0
2019-Dec-14 05:22 073 21 gusting 30 10.0
2019-Dec-14 05:12 071 18 gusting 26 10.0
2019-Dec-14 05:07 076 19 gusting 27 10.0
2019-Dec-14 05:02 073 19 gusting 28 10.0
2019-Dec-14 04:57 082 19 gusting 26 10.0
2019-Dec-14 04:51 073 19 gusting 26 10.0
2019-Dec-14 04:46 081 19 gusting 25 10.0
2019-Dec-14 04:41 081 20 gusting 26 10.0
2019-Dec-14 04:36 078 19 gusting 25 10.0
2019-Dec-14 04:31 081 20 gusting 28 10.0
2019-Dec-14 04:26 071 18 gusting 26 10.0
2019-Dec-14 04:21 086 18 gusting 26 10.0
2019-Dec-14 04:16 079 19 gusting 25 10.0
2019-Dec-14 04:11 080 18 gusting 24 10.0
2019-Dec-14 04:06 076 15 gusting 23 10.0
2019-Dec-14 04:01 070 16 gusting 26 10.0
2019-Dec-14 03:56 072 16 gusting 26 10.0
2019-Dec-14 03:51 081 16 gusting 23 9.4
2019-Dec-14 03:46 076 18 gusting 25 10.0
2019-Dec-14 03:41 072 16 gusting 22 10.0
2019-Dec-14 03:36 074 15 gusting 25 10.0
2019-Dec-14 03:31 072 15 gusting 26 10.0
2019-Dec-14 03:26 080 19 gusting 25 9.4
2019-Dec-14 03:21 080 16 gusting 21 9.4
2019-Dec-14 03:16 074 14 gusting 22 9.4
2019-Dec-14 03:11 086 18 gusting 24 9.4
2019-Dec-14 03:06 082 16 gusting 22 9.4
2019-Dec-14 03:01 078 15 gusting 21 9.4
2019-Dec-14 02:56 074 16 gusting 20 9.4
2019-Dec-14 02:51 081 16 gusting 22 9.4
2019-Dec-14 02:45 085 15 gusting 21 9.4
2019-Dec-14 02:40 082 15 gusting 22 9.4
2019-Dec-14 02:35 088 16 gusting 21 9.4
2019-Dec-14 02:30 082 15 gusting 21 9.4
2019-Dec-14 02:25 080 15 gusting 24 9.4
2019-Dec-14 02:20 076 16 gusting 23 9.4
2019-Dec-14 02:15 080 16 gusting 25 9.4
2019-Dec-14 02:10 081 19 gusting 26 9.4
2019-Dec-14 02:05 080 17 gusting 25 9.4
2019-Dec-14 02:00 077 17 gusting 25 9.4
2019-Dec-14 01:55 078 16 gusting 21 8.9
2019-Dec-14 01:50 073 12 gusting 18 8.9
2019-Dec-14 01:45 074 13 gusting 16 8.9
2019-Dec-14 01:40 078 11 gusting 16 8.9
2019-Dec-14 01:35 078 13 gusting 18 8.3
2019-Dec-14 01:30 086 12 gusting 15 8.3
2019-Dec-14 01:25 088 9 gusting 15 8.3
2019-Dec-14 01:20 082 10 gusting 14 8.3
2019-Dec-14 01:15 084 10 gusting 13 8.3
2019-Dec-14 01:10 088 8 gusting 12 8.3
2019-Dec-14 01:05 082 8 gusting 12 8.3
2019-Dec-14 01:00 089 9 gusting 12 8.3
2019-Dec-14 00:55 089 9 gusting 13 8.3
2019-Dec-14 00:50 094 8 gusting 14 8.3
2019-Dec-14 00:44 093 8 gusting 15 8.3
2019-Dec-14 00:40 086 11 gusting 15 8.3
2019-Dec-14 00:34 079 9 gusting 15 8.3
2019-Dec-14 00:29 090 8 gusting 13 8.3
2019-Dec-14 00:24 088 10 gusting 14 8.3
2019-Dec-14 00:19 084 10 gusting 14 8.3
2019-Dec-14 00:14 085 11 gusting 15 8.3
2019-Dec-14 00:09 090 11 gusting 17 8.3
2019-Dec-13 23:58 078 8 gusting 12 8.3
2019-Dec-13 23:54 076 8 gusting 12 8.3
2019-Dec-13 23:48 069 8 gusting 12 8.3
2019-Dec-13 23:44 075 8 gusting 11 7.8
2019-Dec-13 23:39 077 8 gusting 12 7.8
2019-Dec-13 23:34 078 8 gusting 12 7.8
2019-Dec-13 23:29 080 9 gusting 13 7.8
2019-Dec-13 23:24 083 8 gusting 12 7.8
2019-Dec-13 23:18 078 10 gusting 13 7.8
2019-Dec-13 23:13 076 8 gusting 13 7.8
2019-Dec-13 23:08 078 9 gusting 12 7.8
2019-Dec-13 23:03 076 9 gusting 13 7.8
2019-Dec-13 22:58 083 8 gusting 11 7.8
2019-Dec-13 22:53 061 8 gusting 12 7.8
2019-Dec-13 22:48 079 7 gusting 11 7.8
2019-Dec-13 22:43 077 7 gusting 12 7.8
2019-Dec-13 22:38 064 8 gusting 11 7.2
2019-Dec-13 22:33 064 8 gusting 12 7.2
2019-Dec-13 22:28 068 7 gusting 12 7.2
2019-Dec-13 22:23 073 8 gusting 11 7.8
2019-Dec-13 22:18 075 7 gusting 10 7.8
2019-Dec-13 22:13 074 7 gusting 11 7.8
2019-Dec-13 22:08 071 7 gusting 10 7.8
2019-Dec-13 22:03 079 7 gusting 12 7.8
2019-Dec-13 21:58 084 9 gusting 12 7.8
2019-Dec-13 21:53 086 7 gusting 12 7.8
2019-Dec-13 21:48 089 8 gusting 12 7.2
2019-Dec-13 21:41 084 8 gusting 13 7.2
2019-Dec-13 21:36 087 9 gusting 13 7.2
2019-Dec-13 21:31 080 8 gusting 13 7.2
2019-Dec-13 21:26 089 8 gusting 13 7.2
2019-Dec-13 21:21 078 9 gusting 14 7.2
2019-Dec-13 21:16 087 10 gusting 13 7.2
2019-Dec-13 21:11 084 11 gusting 16 7.2
2019-Dec-13 21:05 086 10 gusting 15 7.2
2019-Dec-13 21:00 087 11 gusting 13 7.2
2019-Dec-13 20:55 087 12 gusting 17 7.2
2019-Dec-13 20:50 087 11 gusting 14 7.2
2019-Dec-13 20:45 078 10 gusting 14 7.2
2019-Dec-13 20:39 077 11 gusting 14 7.2
2019-Dec-13 20:34 082 10 gusting 13 7.2
2019-Dec-13 20:29 081 10 gusting 12 7.2
2019-Dec-13 20:24 082 9 gusting 12 7.2
2019-Dec-13 20:19 088 7 gusting 10 7.2
2019-Dec-13 20:14 084 7 gusting 12 7.2
2019-Dec-13 20:09 085 6 gusting 11 7.2
2019-Dec-13 20:04 080 8 gusting 12 7.2
2019-Dec-13 19:59 082 7 gusting 12 7.2
2019-Dec-13 19:54 088 7 gusting 11 7.2
2019-Dec-13 19:47 092 8 gusting 13 7.2
2019-Dec-13 19:41 098 8 gusting 13 7.2
2019-Dec-13 19:36 097 8 gusting 13 7.2
2019-Dec-13 19:31 087 7 gusting 12 7.2
2019-Dec-13 19:26 086 9 gusting 13 7.2
2019-Dec-13 19:21 084 10 gusting 14 7.2
2019-Dec-13 19:16 094 7 gusting 12 7.2
2019-Dec-13 19:11 088 8 gusting 12 7.2
2019-Dec-13 19:06 082 8 gusting 13 7.2
2019-Dec-13 19:01 086 6 gusting 12 7.2
2019-Dec-13 18:56 096 7 gusting 10 7.2
2019-Dec-13 18:50 099 6 gusting 12 7.2
2019-Dec-13 18:45 101 7 gusting 13 7.2
2019-Dec-13 18:40 102 7 gusting 13 7.2
2019-Dec-13 18:35 096 7 gusting 14 7.2
2019-Dec-13 18:29 103 7 gusting 13 7.2
2019-Dec-13 18:24 094 9 gusting 13 7.2
2019-Dec-13 18:19 095 9 gusting 13 7.2
2019-Dec-13 18:14 097 8 gusting 13 7.2
2019-Dec-13 18:09 103 9 gusting 14 7.2
2019-Dec-13 18:04 102 10 gusting 13 7.2
2019-Dec-13 17:59 092 6 gusting 11 7.2
2019-Dec-13 17:54 098 8 gusting 13 7.2
2019-Dec-13 17:49 093 10 gusting 13 7.2
2019-Dec-13 17:44 097 9 gusting 13 7.2
2019-Dec-13 17:39 101 9 gusting 13 7.2
2019-Dec-13 17:34 100 8 gusting 13 7.2
2019-Dec-13 17:29 103 9 gusting 17 6.7
2019-Dec-13 17:24 093 10 gusting 14 6.7
2019-Dec-13 17:19 097 11 gusting 15 6.7
2019-Dec-13 17:14 080 9 gusting 14 6.7
2019-Dec-13 17:09 082 11 gusting 16 6.7
2019-Dec-13 17:03 092 13 gusting 16 6.7
2019-Dec-13 16:58 103 10 gusting 15 6.7
2019-Dec-13 16:53 092 8 gusting 16 6.7
2019-Dec-13 16:48 098 9 gusting 17 6.7
2019-Dec-13 16:43 088 8 gusting 17 7.2
2019-Dec-13 16:38 097 7 gusting 16 7.2
2019-Dec-13 16:33 088 10 gusting 16 7.2
2019-Dec-13 16:28 092 13 gusting 19 7.2
2019-Dec-13 16:23 097 12 gusting 18 7.2
2019-Dec-13 16:18 090 12 gusting 19 7.2
2019-Dec-13 16:13 090 9 gusting 18 7.2
2019-Dec-13 16:08 090 11 gusting 18 6.7
2019-Dec-13 16:03 108 13 gusting 19 6.7
2019-Dec-13 15:58 106 11 gusting 17 6.7
2019-Dec-13 15:53 099 13 gusting 18 6.1
2019-Dec-13 15:48 106 13 gusting 19 6.1
2019-Dec-13 15:43 106 13 gusting 18 6.1
2019-Dec-13 15:38 105 12 gusting 19 6.1
2019-Dec-13 15:33 105 13 gusting 18 6.1
2019-Dec-13 15:28 101 13 gusting 18 6.1
2019-Dec-13 15:23 098 10 gusting 19 5.6
2019-Dec-13 15:18 091 13 gusting 19 5.6
2019-Dec-13 15:13 101 12 gusting 19 5.6
2019-Dec-13 15:08 100 13 gusting 19 5.6
2019-Dec-13 15:03 100 13 gusting 18 5.6
2019-Dec-13 14:58 091 10 gusting 17 5.6
2019-Dec-13 14:53 098 13 gusting 19 5.0
2019-Dec-13 14:48 099 9 gusting 17 5.0
2019-Dec-13 14:43 102 13 gusting 19 5.0
2019-Dec-13 14:38 092 12 gusting 15 5.0
2019-Dec-13 14:33 095 9 gusting 15 5.0
2019-Dec-13 14:28 089 12 gusting 19 5.0
2019-Dec-13 14:22 098 12 gusting 19 4.4
2019-Dec-13 14:17 090 8 gusting 14 4.4
2019-Dec-13 14:12 086 7 gusting 15 4.4
2019-Dec-13 14:07 092 11 gusting 15 4.4
2019-Dec-13 14:02 091 10 gusting 16 4.4
2019-Dec-13 13:57 089 8 gusting 13 4.4
2019-Dec-13 13:52 090 8 gusting 18 3.9
2019-Dec-13 13:47 093 10 gusting 16 3.9
2019-Dec-13 13:42 092 10 gusting 17 3.9
2019-Dec-13 13:37 098 8 gusting 13 3.9
2019-Dec-13 13:32 107 9 gusting 13 3.3
2019-Dec-13 13:27 101 9 gusting 14 3.3
2019-Dec-13 13:22 096 10 gusting 14 3.3
2019-Dec-13 13:16 098 8 gusting 13 3.3
2019-Dec-13 13:11 101 10 gusting 14 3.3
2019-Dec-13 13:05 103 9 gusting 15 2.8
2019-Dec-13 13:00 106 10 gusting 15 2.8
2019-Dec-13 12:55 105 8 gusting 13 2.8
2019-Dec-13 12:50 095 9 gusting 14 2.8
2019-Dec-13 12:45 102 8 gusting 14 2.8
2019-Dec-13 12:40 093 9 gusting 13 2.8
2019-Dec-13 12:35 098 10 gusting 14 2.8
2019-Dec-13 12:30 091 10 gusting 16 2.8
2019-Dec-13 12:25 083 11 gusting 16 2.2
2019-Dec-13 12:20 111 10 gusting 13 2.2
2019-Dec-13 12:15 094 11 gusting 17 2.2
2019-Dec-13 12:10 090 12 gusting 17 2.2
2019-Dec-13 12:05 093 11 gusting 15 2.2
2019-Dec-13 12:00 097 9 gusting 16 2.2
2019-Dec-13 11:55 101 9 gusting 17 2.2
2019-Dec-13 11:49 087 12 gusting 15 1.7
2019-Dec-13 11:44 077 11 gusting 15 1.7
2019-Dec-13 11:39 082 12 gusting 16 1.7
2019-Dec-13 11:34 085 11 gusting 17 1.7
2019-Dec-13 11:29 091 9 gusting 12 1.7
2019-Dec-13 11:24 094 8 gusting 14 1.7
2019-Dec-13 11:19 094 8 gusting 13 1.7
2019-Dec-13 11:14 097 9 gusting 13 1.1
2019-Dec-13 11:08 100 7 gusting 13 1.1
2019-Dec-13 11:03 088 8 gusting 14 1.1
2019-Dec-13 10:58 100 8 gusting 12 1.1
2019-Dec-13 10:52 099 7 gusting 11 0.6
2019-Dec-13 10:47 094 7 gusting 12 0.6
2019-Dec-13 10:42 095 6 gusting 9 0.6
2019-Dec-13 10:37 098 6 gusting 10 0.6
2019-Dec-13 10:32 096 6 gusting 10 0.6
2019-Dec-13 10:27 096 7 gusting 10 0.6
2019-Dec-13 10:22 094 6 gusting 9 0.6
2019-Dec-13 10:17 088 6 gusting 7 -0.0
2019-Dec-13 10:12 088 6 gusting 8 0.6
2019-Dec-13 10:07 093 5 gusting 9 0.6
2019-Dec-13 10:02 097 6 gusting 9 -0.0
2019-Dec-13 09:51 100 6 gusting 8 -0.0
2019-Dec-13 09:46 101 6 gusting 8 -0.0
2019-Dec-13 09:41 104 6 gusting 8 -0.0
2019-Dec-13 09:36 105 6 gusting 8 -0.0
2019-Dec-13 09:31 108 6 gusting 9 -0.0
2019-Dec-13 09:26 112 5 gusting 8 -0.0
2019-Dec-13 09:21 105 6 gusting 9 -0.0
2019-Dec-13 09:16 107 6 gusting 8 -0.0
2019-Dec-13 09:11 105 6 gusting 9 -0.0
2019-Dec-13 09:06 110 6 gusting 7 -0.0
2019-Dec-13 09:01 108 5 gusting 7 -0.0
2019-Dec-13 08:55 116 5 gusting 6 -0.0
2019-Dec-13 08:50 106 6 gusting 7 -0.0
2019-Dec-13 08:45 111 6 gusting 7 -0.0
2019-Dec-13 08:40 112 5 gusting 6 -0.0
2019-Dec-13 08:35 111 4 gusting 6 -0.0
2019-Dec-13 08:30 106 5 gusting 6 -0.0
2019-Dec-13 08:25 104 4 gusting 6 -0.0
2019-Dec-13 08:20 109 5 gusting 6 -0.6
2019-Dec-13 08:14 107 5 gusting 8 -0.0
2019-Dec-13 08:09 105 5 gusting 7 -0.0
2019-Dec-13 08:04 115 5 gusting 6 -0.0
2019-Dec-13 07:59 115 5 gusting 6 -0.0
2019-Dec-13 07:54 120 5 gusting 6 -0.0
2019-Dec-13 07:49 122 5 gusting 6 -0.6
2019-Dec-13 07:44 093 4 gusting 6 -0.6
2019-Dec-13 07:39 128 4 gusting 6 -0.6
2019-Dec-13 07:34 165 3 gusting 6 -0.6
2019-Dec-13 07:28 165 2 gusting 5 -0.6
2019-Dec-13 07:18 129 5 gusting 6 -0.6
2019-Dec-13 07:08 134 3 gusting 5 -0.6
2019-Dec-13 07:03 133 3 gusting 5 -0.6
2019-Dec-13 06:58 132 3 gusting 5 -0.6
2019-Dec-13 06:53 132 3 gusting 5 -0.6
2019-Dec-13 06:48 141 3 gusting 6 -0.6
2019-Dec-13 06:43 133 3 gusting 5 -0.6
2019-Dec-13 06:38 131 4 gusting 5 -0.6
2019-Dec-13 06:33 138 3 gusting 6 -0.6
2019-Dec-13 06:28 153 3 gusting 5 -0.6
2019-Dec-13 06:23 175 3 gusting 5 -0.6
2019-Dec-13 06:17 184 3 gusting 6 -1.1
2019-Dec-13 06:12 139 3 gusting 6 -1.1
2019-Dec-13 06:07 150 4 gusting 6 -1.1
2019-Dec-13 06:02 143 3 gusting 6 -1.1
2019-Dec-13 05:57 180 3 gusting 6 -1.1
2019-Dec-13 05:52 165 4 gusting 6 -1.1
2019-Dec-13 05:47 179 4 gusting 6 -1.1
2019-Dec-13 05:42 189 2 gusting 5 -0.6
2019-Dec-13 05:37 168 3 gusting 6 -0.6
2019-Dec-13 05:32 177 4 gusting 6 -0.6
2019-Dec-13 05:27 171 4 gusting 5 -0.6
2019-Dec-13 05:22 173 4 gusting 5 -1.1
2019-Dec-13 05:06 132 2 gusting 4 -1.1
2019-Dec-13 05:01 136 1 gusting 4 -1.1
2019-Dec-13 04:55 147 1 gusting 4 -1.1
2019-Dec-13 04:50 159 2 gusting 4 -1.1
2019-Dec-13 04:45 139 1 gusting 4 -1.1
2019-Dec-13 04:40 135 2 gusting 5 -1.1
2019-Dec-13 04:35 175 2 gusting 4 -1.1
2019-Dec-13 04:30 135 1 gusting 3 -1.1
2019-Dec-13 04:25 119 2 gusting 4 -1.1
2019-Dec-13 04:20 144 2 gusting 3 -1.1
2019-Dec-13 04:15 119 1 gusting 3 -1.1
2019-Dec-13 04:10 119 -1.1
2019-Dec-13 04:05 120 0 gusting 2 -1.1
2019-Dec-13 04:00 152 -1.1
2019-Dec-13 03:50 133 0 gusting 3 -1.1
2019-Dec-13 03:45 142 2 gusting 4 -1.1
2019-Dec-13 03:35 121 2 gusting 3 -1.1
2019-Dec-13 03:30 167 1 gusting 4 -1.1
2019-Dec-13 03:25 174 3 gusting 5 -0.6
2019-Dec-13 03:20 184 3 gusting 4 -0.6
2019-Dec-13 03:15 193 1 gusting 3 -0.6
2019-Dec-13 03:10 187 2 gusting 4 -0.6
2019-Dec-13 03:05 190 2 gusting 4 -0.6
2019-Dec-13 03:00 180 2 gusting 4 -1.1
2019-Dec-13 02:55 175 2 gusting 4 -1.1
2019-Dec-13 02:50 177 1 gusting 4 -1.1
2019-Dec-13 02:45 173 1 gusting 4 -1.1
2019-Dec-13 02:40 161 2 gusting 4 -1.1
2019-Dec-13 02:35 151 2 gusting 5 -1.1
2019-Dec-13 02:30 153 2 gusting 5 -1.1
2019-Dec-13 02:25 161 2 gusting 5 -1.1
2019-Dec-13 02:20 143 3 gusting 5 -1.1
2019-Dec-13 02:15 149 2 gusting 4 -1.1
2019-Dec-13 02:10 157 1 gusting 4 -1.1
2019-Dec-13 02:05 171 3 gusting 4 -1.1
2019-Dec-13 01:59 178 2 gusting 4 -1.1
2019-Dec-13 01:54 149 3 gusting 5 -1.1
2019-Dec-13 01:49 179 3 gusting 5 -1.1
2019-Dec-13 01:44 182 3 gusting 4 -1.1
2019-Dec-13 01:39 155 2 gusting 4 -1.1
2019-Dec-13 01:34 157 2 gusting 4 -1.1
2019-Dec-13 01:29 178 2 gusting 4 -1.1
2019-Dec-13 01:24 187 2 gusting 3 -1.1
2019-Dec-13 01:20 186 2 gusting 3 -1.1
2019-Dec-13 01:14 189 2 gusting 4 -1.1
2019-Dec-13 01:09 185 2 gusting 3 -1.7
2019-Dec-13 01:04 183 -1.1
2019-Dec-13 00:59 201 0 gusting 3 -1.1
2019-Dec-13 00:54 240 1 gusting 1 -0.6
2019-Dec-13 00:49 266 1 gusting 3 -0.6
2019-Dec-13 00:44 286 1 gusting 3 -0.6
2019-Dec-13 00:39 261 0 gusting 4 -0.6
2019-Dec-13 00:34 254 2 gusting 4 -0.6
2019-Dec-13 00:29 268 0 gusting 2 -0.6
2019-Dec-13 00:24 268 0 gusting 3 -1.1
2019-Dec-13 00:19 263 -1.1
2019-Dec-13 00:14 264 0 gusting 2 -1.1
2019-Dec-13 00:09 264 -1.1
2019-Dec-12 23:55 248 0 gusting 3 -1.7
2019-Dec-12 23:50 248 1 gusting 4 -1.7
2019-Dec-12 23:45 250 1 gusting 4 -1.7
2019-Dec-12 23:40 252 3 gusting 5 -1.7
2019-Dec-12 23:35 233 0 gusting 3 -1.7
2019-Dec-12 23:30 241 1 gusting 4 -1.1
2019-Dec-12 23:25 269 1 gusting 4 -1.1
2019-Dec-12 23:20 260 1 gusting 5 -1.7
2019-Dec-12 23:15 251 2 gusting 4 -1.7
2019-Dec-12 23:10 251 1 gusting 5 -1.7
2019-Dec-12 23:05 284 4 gusting 6 -1.1
2019-Dec-12 23:00 247 2 gusting 5 -1.7
2019-Dec-12 22:55 256 1 gusting 5 -1.7
2019-Dec-12 22:50 250 4 gusting 6 -1.7
2019-Dec-12 22:45 256 5 gusting 7 -1.7
2019-Dec-12 22:40 249 2 gusting 5 -1.7
2019-Dec-12 22:35 231 1 gusting 5 -1.7
2019-Dec-12 22:30 258 3 gusting 5 -1.7
2019-Dec-12 22:25 248 3 gusting 6 -1.7
2019-Dec-12 22:20 249 4 gusting 8 -1.1
2019-Dec-12 22:15 251 3 gusting 8 -1.1
2019-Dec-12 22:10 276 5 gusting 6 -1.7
2019-Dec-12 22:05 238 2 gusting 5 -1.1
2019-Dec-12 22:00 269 3 gusting 8 -1.1
2019-Dec-12 21:55 243 5 gusting 7 -1.1
2019-Dec-12 21:50 253 4 gusting 9 -1.1
2019-Dec-12 21:45 257 4 gusting 9 -1.1
2019-Dec-12 21:40 261 6 gusting 10 -1.1
2019-Dec-12 21:35 258 6 gusting 13 -1.1
2019-Dec-12 21:30 252 6 gusting 10 -1.1
2019-Dec-12 21:25 255 3 gusting 9 -1.1
2019-Dec-12 21:20 247 5 gusting 10 -1.1
2019-Dec-12 21:15 248 8 gusting 12 -1.1
2019-Dec-12 21:10 249 8 gusting 13 -1.1
2019-Dec-12 21:05 257 8 gusting 13 -1.1
2019-Dec-12 21:00 237 8 gusting 13 -1.1
2019-Dec-12 20:55 243 7 gusting 12 -1.1
2019-Dec-12 20:50 238 7 gusting 10 -0.6
2019-Dec-12 20:45 239 6 gusting 10 -0.6
2019-Dec-12 20:40 244 7 gusting 14 -0.6
2019-Dec-12 20:35 242 10 gusting 13 -0.6
2019-Dec-12 20:30 246 8 gusting 12 -0.6
2019-Dec-12 20:24 242 10 gusting 13 -0.6
2019-Dec-12 20:20 234 8 gusting 13 -0.6
2019-Dec-12 20:14 252 11 gusting 15 -0.6
2019-Dec-12 20:09 248 10 gusting 13 -0.6
2019-Dec-12 20:04 242 9 gusting 15 -0.6
2019-Dec-12 19:59 267 6 gusting 15 -0.6
2019-Dec-12 19:54 239 7 gusting 14 -0.6
2019-Dec-12 19:49 260 11 gusting 16 -0.6
2019-Dec-12 19:43 241 10 gusting 15 -0.6
2019-Dec-12 19:38 242 8 gusting 18 -0.6
2019-Dec-12 19:33 238 12 gusting 16 -0.0
2019-Dec-12 19:28 240 12 gusting 17 -0.6
2019-Dec-12 19:23 249 13 gusting 17 -0.6
2019-Dec-12 19:18 245 9 gusting 17 -0.6
2019-Dec-12 19:13 240 13 gusting 17 -0.6
2019-Dec-12 19:08 242 10 gusting 17 -0.6
2019-Dec-12 19:03 249 12 gusting 19 -1.1
2019-Dec-12 18:58 246 10 gusting 16 -0.6
2019-Dec-12 18:53 248 12 gusting 18 -0.6
2019-Dec-12 18:48 249 11 gusting 18 -0.6
2019-Dec-12 18:43 249 11 gusting 17 -0.6
2019-Dec-12 18:38 246 11 gusting 18 -0.0
2019-Dec-12 18:33 250 9 gusting 19 -0.6
2019-Dec-12 18:28 243 12 gusting 17 -0.6
2019-Dec-12 18:23 247 13 gusting 20 -0.6
2019-Dec-12 18:18 248 13 gusting 18 -0.6
2019-Dec-12 18:13 245 10 gusting 20 -0.6
2019-Dec-12 18:08 241 13 gusting 18 -0.6
2019-Dec-12 18:03 243 13 gusting 18 -0.6
2019-Dec-12 17:58 240 13 gusting 19 -0.6
2019-Dec-12 17:53 246 13 gusting 18 -0.6
2019-Dec-12 17:48 237 13 gusting 19 -0.6
2019-Dec-12 17:43 234 11 gusting 19 -0.6
2019-Dec-12 17:38 236 13 gusting 18 -0.6
2019-Dec-12 17:33 243 12 gusting 16 -0.6
2019-Dec-12 17:28 238 12 gusting 19 -0.6
2019-Dec-12 17:23 234 13 gusting 18 -0.6
2019-Dec-12 17:18 229 12 gusting 16 -0.6
2019-Dec-12 17:13 233 13 gusting 19 -0.6
2019-Dec-12 17:08 233 9 gusting 19 -0.6
2019-Dec-12 17:03 214 13 gusting 21 -1.1
2019-Dec-12 16:58 210 13 gusting 23 -1.1
2019-Dec-12 16:53 234 14 gusting 19 -1.1
2019-Dec-12 16:48 244 16 gusting 20 -1.1
2019-Dec-12 16:43 238 13 gusting 17 -1.1
2019-Dec-12 16:38 257 12 gusting 17 -1.1
2019-Dec-12 16:33 245 13 gusting 24 -1.1
2019-Dec-12 16:28 237 12 gusting 22 -1.1
2019-Dec-12 16:23 241 16 gusting 22 -1.1
2019-Dec-12 16:18 244 13 gusting 20 -1.1
2019-Dec-12 16:13 246 13 gusting 19 -1.1
2019-Dec-12 16:08 235 14 gusting 19 -1.1
2019-Dec-12 16:03 235 12 gusting 19 -1.1
2019-Dec-12 15:58 247 13 gusting 19 -1.1
2019-Dec-12 15:53 245 13 gusting 22 -1.7
2019-Dec-12 15:48 237 17 gusting 24 -1.7
2019-Dec-12 15:43 237 13 gusting 24 -1.7
2019-Dec-12 15:38 235 13 gusting 25 -1.1
2019-Dec-12 15:33 241 15 gusting 25 -1.7
2019-Dec-12 15:28 231 16 gusting 24 -1.7
2019-Dec-12 15:23 238 16 gusting 26 -1.7
2019-Dec-12 15:18 241 17 gusting 29 -1.7
2019-Dec-12 15:13 240 17 gusting 25 -1.7
2019-Dec-12 15:08 239 19 gusting 27 -1.7
2019-Dec-12 15:02 241 19 gusting 24 -1.7